Site contains unofficial IBTrACS data. Visit the IBTrACS Website to access archived data.

1868 Hurricane NOT_NAMED (1868250N31323)


IBTrACS version v04r00. Visit IBTrACS website for data access.
Please direct all questions to the IBTrACS Q and A forum

Storm track - Intensity - Wind Radii - Intensity Data - Source Data - All data

Summary Information

Storm ID 1868250N31323
Start Sep 5 12Z
Max Intensity 80 kt (Sep 14 18Z)
End Sep 19 12Z
ATCF IDs
Track status Best track data.

Storm track plot

Map of storm track

Intensity plots

Map of storm track

Radial wind information

No radial wind information for this storm


Position and Intensity Table

BASIN ISO_TIME_________ NATURE LAT LON MLC WIND
degrees north degrees east kts
NA 1868-09-05 12:00:00 TS 31.00 -37.10 35
NA 15:00:00 TS 31.10 -37.31 35
NA 18:00:00 TS 31.20 -37.50 35
NA 21:00:00 TS 31.30 -37.65 35
NA 1868-09-06 00:00:00 TS 31.40 -37.80 35
NA 03:00:00 TS 31.50 -38.00 35
NA 06:00:00 TS 31.60 -38.20 35
NA 09:00:00 TS 31.70 -38.35 37
NA 12:00:00 TS 31.80 -38.50 40
NA 15:00:00 TS 31.90 -38.69 40
NA 18:00:00 TS 32.00 -38.90 40
NA 21:00:00 TS 32.10 -39.10 40
NA 1868-09-07 00:00:00 TS 32.20 -39.30 40
NA 03:00:00 TS 32.30 -39.51 40
NA 06:00:00 TS 32.40 -39.70 40
NA 09:00:00 TS 32.50 -39.85 42
NA 12:00:00 TS 32.60 -40.00 45
NA 15:00:00 TS 32.71 -40.20 45
NA 18:00:00 TS 32.80 -40.40 45
NA 21:00:00 TS 32.85 -40.56 45
NA 1868-09-08 00:00:00 TS 32.90 -40.70 45
NA 03:00:00 TS 33.00 -40.85 45
NA 06:00:00 TS 33.10 -41.00 45
NA 09:00:00 TS 33.15 -41.15 45
NA 12:00:00 TS 33.20 -41.30 45
NA 15:00:00 TS 33.30 -41.45 45
NA 18:00:00 TS 33.40 -41.60 45
NA 21:00:00 TS 33.45 -41.74 45
NA 1868-09-09 00:00:00 TS 33.50 -41.90 45
NA 03:00:00 TS 33.60 -42.10 45
NA 06:00:00 TS 33.70 -42.30 45
NA 09:00:00 TS 33.76 -42.46 45
NA 12:00:00 TS 33.80 -42.60 45
NA 15:00:00 TS 33.85 -42.75 47
NA 18:00:00 TS 33.90 -42.90 50
NA 21:00:00 TS 33.95 -43.04 50
NA 1868-09-10 00:00:00 TS 34.00 -43.20 50
NA 03:00:00 TS 34.05 -43.39 50
NA 06:00:00 TS 34.10 -43.60 50
NA 09:00:00 TS 34.15 -43.80 50
NA 12:00:00 TS 34.20 -44.00 50
NA 15:00:00 TS 34.25 -44.21 52
NA 18:00:00 TS 34.30 -44.40 55
NA 21:00:00 TS 34.35 -44.55 55
NA 1868-09-11 00:00:00 TS 34.40 -44.70 55
NA 03:00:00 TS 34.45 -44.89 55
NA 06:00:00 TS 34.50 -45.10 55
NA 09:00:00 TS 34.56 -45.30 55
NA 12:00:00 TS 34.60 -45.50 55
NA 15:00:00 TS 34.60 -45.70 57
NA 18:00:00 TS 34.60 -45.90 60
NA 21:00:00 TS 34.66 -46.10 62
NA 1868-09-12 00:00:00 TS 34.70 -46.30 65
NA 03:00:00 TS 34.67 -46.49 65
NA 06:00:00 TS 34.60 -46.70 65
NA 09:00:00 TS 34.51 -46.95 70
NA 12:00:00 TS 34.40 -47.20 75
NA 15:00:00 TS 34.29 -47.41 75
NA 18:00:00 TS 34.20 -47.60 75
NA 21:00:00 TS 34.16 -47.80 75
NA 1868-09-13 00:00:00 TS 34.10 -48.00 75
NA 03:00:00 TS 33.96 -48.21 75
NA 06:00:00 TS 33.80 -48.40 75
NA 09:00:00 TS 33.70 -48.55 75
NA 12:00:00 TS 33.60 -48.70 75
NA 15:00:00 TS 33.45 -48.90 75
NA 18:00:00 TS 33.30 -49.10 75
NA 21:00:00 TS 33.20 -49.25 75
NA 1868-09-14 00:00:00 TS 33.10 -49.40 75
NA 03:00:00 TS 32.96 -49.59 75
NA 06:00:00 TS 32.80 -49.80 75
NA 09:00:00 TS 32.66 -50.00 75
NA 12:00:00 TS 32.50 -50.20 75
NA 15:00:00 TS 32.30 -50.40 77
NA 18:00:00 TS 32.10 -50.60 80
NA 21:00:00 TS 31.94 -50.77 80
NA 1868-09-15 00:00:00 TS 31.80 -51.00 80
NA 03:00:00 TS 31.65 -51.38 80
NA 06:00:00 TS 31.50 -51.80 80
NA 09:00:00 TS 31.31 -52.16 80
NA 12:00:00 TS 31.20 -52.50 80
NA 15:00:00 TS 31.26 -52.85 80
NA 18:00:00 TS 31.40 -53.20 80
NA 21:00:00 TS 31.45 -53.59 80
NA 1868-09-16 00:00:00 TS 31.60 -53.90 80
NA 03:00:00 TS 32.03 -54.07 80
NA 06:00:00 TS 32.50 -54.10 80
NA 09:00:00 TS 32.79 -54.10 77
NA 12:00:00 TS 33.00 -53.90 75
NA 15:00:00 TS 33.17 -53.42 75
NA 18:00:00 TS 33.30 -52.80 75
NA 21:00:00 TS 33.40 -52.19 75
NA 1868-09-17 00:00:00 TS 33.50 -51.70 75
NA 03:00:00 TS 33.64 -51.48 75
NA 06:00:00 TS 33.80 -51.40 75
NA 09:00:00 TS 33.91 -51.31 75
NA 12:00:00 TS 34.10 -51.20 75
NA 15:00:00 TS 34.45 -51.03 72
NA 18:00:00 TS 34.90 -50.80 70
NA 21:00:00 TS 35.32 -50.56 70
NA 1868-09-18 00:00:00 TS 35.90 -50.20 70
NA 03:00:00 TS 36.71 -49.69 70
NA 06:00:00 TS 37.80 -49.00 70
NA 09:00:00 TS 39.19 -48.13 70
NA 12:00:00 TS 40.70 -47.10 70
NA 15:00:00 TS 42.09 -45.99 67
NA 18:00:00 TS 43.40 -44.80 65
NA 21:00:00 TS 44.60 -43.50 65
NA 1868-09-19 00:00:00 TS 45.70 -42.30 65
NA 03:00:00 TS 46.75 -41.49 60
NA 06:00:00 TS 47.80 -40.70 55
NA 09:00:00 TS 48.89 -39.54 50
NA 12:00:00 ET 50.00 -38.10 45

Source Information

Agency Information
USA
TOKYO
CMA
HKO
NEWDELHI
REUNION
BOM
NADI
WELLINGTON
DS824
TD9636
TD9635
NEUMANN
MLC

All available IBTrACS Data

SEASON BASIN SUBBASIN ISO_TIME_________ NATURE LAT LON DIST2LAND LANDFALL IFLAG USA SSHS MLC LAT MLC LON MLC CLASS MLC WIND STORM SPEED STORM DIR
Year degrees north degrees east km km 1 degrees north degrees east kts kts degrees
1868 NA NA 1868-09-05 12:00:00 TS 31.00 -37.10 1979 1979 _____________O -1 31.00 -37.10 TS 35 4 299
1868 NA NA 15:00:00 TS 31.10 -37.31 1998 1998 _____________P -1 31.10 -37.31 TS 35 4 300
1868 NA NA 18:00:00 TS 31.20 -37.50 2018 2018 _____________O -1 31.20 -37.50 TS 35 4 305
1868 NA NA 21:00:00 TS 31.30 -37.65 2038 2038 _____________P -1 31.30 -37.65 TS 35 3 308
1868 NA NA 1868-09-06 00:00:00 TS 31.40 -37.80 2048 2048 _____________O -1 31.40 -37.80 TS 35 4 304
1868 NA NA 03:00:00 TS 31.50 -38.00 2068 2068 _____________P -1 31.50 -38.00 TS 35 4 300
1868 NA NA 06:00:00 TS 31.60 -38.20 2088 2088 _____________O -1 31.60 -38.20 TS 35 4 304
1868 NA NA 09:00:00 TS 31.70 -38.35 2083 2068 _____________P -1 31.70 -38.35 TS 37 3 308
1868 NA NA 12:00:00 TS 31.80 -38.50 2068 2048 _____________O -1 31.80 -38.50 TS 40 4 304
1868 NA NA 15:00:00 TS 31.90 -38.69 2048 2029 _____________P -1 31.90 -38.69 TS 40 4 300
1868 NA NA 18:00:00 TS 32.00 -38.90 2029 2009 _____________O -1 32.00 -38.90 TS 40 4 300
1868 NA NA 21:00:00 TS 32.10 -39.10 2009 1990 _____________P -1 32.10 -39.10 TS 40 4 301
1868 NA NA 1868-09-07 00:00:00 TS 32.20 -39.30 1990 1970 _____________O -1 32.20 -39.30 TS 40 4 300
1868 NA NA 03:00:00 TS 32.30 -39.51 1970 1951 _____________P -1 32.30 -39.51 TS 40 4 301
1868 NA NA 06:00:00 TS 32.40 -39.70 1951 1937 _____________O -1 32.40 -39.70 TS 40 4 305
1868 NA NA 09:00:00 TS 32.50 -39.85 1932 1917 _____________P -1 32.50 -39.85 TS 42 3 308
1868 NA NA 12:00:00 TS 32.60 -40.00 1917 1898 _____________O -1 32.60 -40.00 TS 45 4 305
1868 NA NA 15:00:00 TS 32.71 -40.20 1898 1879 _____________P -1 32.71 -40.20 TS 45 4 301
1868 NA NA 18:00:00 TS 32.80 -40.40 1879 1874 _____________O -1 32.80 -40.40 TS 45 3 295
1868 NA NA 21:00:00 TS 32.85 -40.56 1869 1855 _____________P -1 32.85 -40.56 TS 45 3 292
1868 NA NA 1868-09-08 00:00:00 TS 32.90 -40.70 1855 1840 _____________O -1 32.90 -40.70 TS 45 3 302
1868 NA NA 03:00:00 TS 33.00 -40.85 1840 1821 _____________P -1 33.00 -40.85 TS 45 3 308
1868 NA NA 06:00:00 TS 33.10 -41.00 1821 1816 _____________O -1 33.10 -41.00 TS 45 3 301
1868 NA NA 09:00:00 TS 33.15 -41.15 1812 1797 _____________P -1 33.15 -41.15 TS 45 3 292
1868 NA NA 12:00:00 TS 33.20 -41.30 1797 1783 _____________O -1 33.20 -41.30 TS 45 3 301
1868 NA NA 15:00:00 TS 33.30 -41.45 1783 1764 _____________P -1 33.30 -41.45 TS 45 3 308
1868 NA NA 18:00:00 TS 33.40 -41.60 1764 1759 _____________O -1 33.40 -41.60 TS 45 3 302
1868 NA NA 21:00:00 TS 33.45 -41.74 1759 1740 _____________P -1 33.45 -41.74 TS 45 3 292
1868 NA NA 1868-09-09 00:00:00 TS 33.50 -41.90 1740 1722 _____________O -1 33.50 -41.90 TS 45 3 297
1868 NA NA 03:00:00 TS 33.60 -42.10 1722 1703 _____________P -1 33.60 -42.10 TS 45 4 301
1868 NA NA 06:00:00 TS 33.70 -42.30 1703 1689 _____________O -1 33.70 -42.30 TS 45 3 298
1868 NA NA 09:00:00 TS 33.76 -42.46 1684 1680 _____________P -1 33.76 -42.46 TS 45 3 292
1868 NA NA 12:00:00 TS 33.80 -42.60 1680 1675 _____________O -1 33.80 -42.60 TS 45 3 291
1868 NA NA 15:00:00 TS 33.85 -42.75 1671 1657 _____________P -1 33.85 -42.75 TS 47 3 292
1868 NA NA 18:00:00 TS 33.90 -42.90 1657 1652 _____________O -1 33.90 -42.90 TS 50 3 292
1868 NA NA 21:00:00 TS 33.95 -43.04 1652 1634 _____________P -1 33.95 -43.04 TS 50 3 292
1868 NA NA 1868-09-10 00:00:00 TS 34.00 -43.20 1634 1625 _____________O -1 34.00 -43.20 TS 50 3 289
1868 NA NA 03:00:00 TS 34.05 -43.39 1615 1607 _____________P -1 34.05 -43.39 TS 50 3 287
1868 NA NA 06:00:00 TS 34.10 -43.60 1607 1599 _____________O -1 34.10 -43.60 TS 50 4 287
1868 NA NA 09:00:00 TS 34.15 -43.80 1599 1580 _____________P -1 34.15 -43.80 TS 50 3 287
1868 NA NA 12:00:00 TS 34.20 -44.00 1580 1572 _____________O -1 34.20 -44.00 TS 50 4 287
1868 NA NA 15:00:00 TS 34.25 -44.21 1562 1554 _____________P -1 34.25 -44.21 TS 52 3 287
1868 NA NA 18:00:00 TS 34.30 -44.40 1554 1550 _____________O -1 34.30 -44.40 TS 55 3 290
1868 NA NA 21:00:00 TS 34.35 -44.55 1546 1532 _____________P -1 34.35 -44.55 TS 55 3 292
1868 NA NA 1868-09-11 00:00:00 TS 34.40 -44.70 1532 1525 _____________O -1 34.40 -44.70 TS 55 3 290
1868 NA NA 03:00:00 TS 34.45 -44.89 1515 1507 _____________P -1 34.45 -44.89 TS 55 3 287
1868 NA NA 06:00:00 TS 34.50 -45.10 1507 1489 _____________O -1 34.50 -45.10 TS 55 4 288
1868 NA NA 09:00:00 TS 34.56 -45.30 1489 1482 _____________P -1 34.56 -45.30 TS 55 3 287
1868 NA NA 12:00:00 TS 34.60 -45.50 1482 1475 _____________O -1 34.60 -45.50 TS 55 3 277
1868 NA NA 15:00:00 TS 34.60 -45.70 1475 1468 _____________P -1 34.60 -45.70 TS 57 3 270
1868 NA NA 18:00:00 TS 34.60 -45.90 1468 1451 _____________O -1 34.60 -45.90 TS 60 3 280
1868 NA NA 21:00:00 TS 34.66 -46.10 1451 1444 _____________P -1 34.66 -46.10 TS 62 3 287
1868 NA NA 1868-09-12 00:00:00 TS 34.70 -46.30 1444 1437 _____________O -1 34.70 -46.30 HU 65 3 273
1868 NA NA 03:00:00 TS 34.67 -46.49 1437 1434 _____________P -1 34.67 -46.49 HU 65 3 253
1868 NA NA 06:00:00 TS 34.60 -46.70 1441 1438 _____________O -1 34.60 -46.70 HU 65 4 246
1868 NA NA 09:00:00 TS 34.51 -46.95 1442 1439 _____________P -1 34.51 -46.95 HU 70 5 244
1868 NA NA 12:00:00 TS 34.40 -47.20 1447 1444 _____________O -1 34.40 -47.20 HU 75 4 240
1868 NA NA 15:00:00 TS 34.29 -47.41 1452 1449 _____________P -1 34.29 -47.41 HU 75 4 239
1868 NA NA 18:00:00 TS 34.20 -47.60 1457 1452 _____________O -1 34.20 -47.60 HU 75 4 247
1868 NA NA 21:00:00 TS 34.16 -47.80 1452 1452 _____________P -1 34.16 -47.80 HU 75 3 253
1868 NA NA 1868-09-13 00:00:00 TS 34.10 -48.00 1457 1455 _____________O -1 34.10 -48.00 HU 75 4 239
1868 NA NA 03:00:00 TS 33.96 -48.21 1463 1463 _____________P -1 33.96 -48.21 HU 75 4 228
1868 NA NA 06:00:00 TS 33.80 -48.40 1480 1478 _____________O -1 33.80 -48.40 HU 75 4 228
1868 NA NA 09:00:00 TS 33.70 -48.55 1489 1486 _____________P -1 33.70 -48.55 HU 75 3 232
1868 NA NA 12:00:00 TS 33.60 -48.70 1495 1493 _____________O -1 33.60 -48.70 HU 75 4 229
1868 NA NA 15:00:00 TS 33.45 -48.90 1502 1502 _____________P -1 33.45 -48.90 HU 75 4 228
1868 NA NA 18:00:00 TS 33.30 -49.10 1520 1518 _____________O -1 33.30 -49.10 HU 75 4 230
1868 NA NA 21:00:00 TS 33.20 -49.25 1529 1527 _____________P -1 33.20 -49.25 HU 75 3 232
1868 NA NA 1868-09-14 00:00:00 TS 33.10 -49.40 1536 1534 _____________O -1 33.10 -49.40 HU 75 4 230
1868 NA NA 03:00:00 TS 32.96 -49.59 1543 1543 _____________P -1 32.96 -49.59 HU 75 5 228
1868 NA NA 06:00:00 TS 32.80 -49.80 1562 1561 _____________O -1 32.80 -49.80 HU 75 5 229
1868 NA NA 09:00:00 TS 32.66 -50.00 1570 1570 _____________P -1 32.66 -50.00 HU 75 5 228
1868 NA NA 12:00:00 TS 32.50 -50.20 1589 1589 _____________O -1 32.50 -50.20 HU 75 5 223
1868 NA NA 15:00:00 TS 32.30 -50.40 1609 1609 _____________P -1 32.30 -50.40 HU 77 5 220
1868 NA NA 18:00:00 TS 32.10 -50.60 1629 1629 _____________O -1 32.10 -50.60 HU 80 5 221
1868 NA NA 21:00:00 TS 31.94 -50.77 1649 1647 _____________P -1 31.94 -50.77 HU 80 5 229
1868 NA NA 1868-09-15 00:00:00 TS 31.80 -51.00 1658 1657 _____________O -1 31.80 -51.00 HU 80 6 241
1868 NA NA 03:00:00 TS 31.65 -51.38 1665 1665 _____________P -1 31.65 -51.38 HU 80 7 246
1868 NA NA 06:00:00 TS 31.50 -51.80 1685 1684 _____________O -1 31.50 -51.80 HU 80 7 243
1868 NA NA 09:00:00 TS 31.31 -52.16 1705 1704 _____________P -1 31.31 -52.16 HU 80 7 243
1868 NA NA 12:00:00 TS 31.20 -52.50 1715 1703 _____________O -1 31.20 -52.50 HU 80 6 265
1868 NA NA 15:00:00 TS 31.26 -52.85 1703 1681 _____________P -1 31.26 -52.85 HU 80 6 288
1868 NA NA 18:00:00 TS 31.40 -53.20 1681 1667 _____________O -1 31.40 -53.20 HU 80 7 286
1868 NA NA 21:00:00 TS 31.45 -53.59 1667 1636 _____________P -1 31.45 -53.59 HU 80 6 288
1868 NA NA 1868-09-16 00:00:00 TS 31.60 -53.90 1636 1588 _____________O -1 31.60 -53.90 HU 80 7 325
1868 NA NA 03:00:00 TS 32.03 -54.07 1588 1536 _____________P -1 32.03 -54.07 HU 80 9 350
1868 NA NA 06:00:00 TS 32.50 -54.10 1536 1504 _____________O -1 32.50 -54.10 HU 80 8 0
1868 NA NA 09:00:00 TS 32.79 -54.10 1504 1487 _____________P -1 32.79 -54.10 HU 77 5 19
1868 NA NA 12:00:00 TS 33.00 -53.90 1491 1484 _____________O -1 33.00 -53.90 HU 75 7 56
1868 NA NA 15:00:00 TS 33.17 -53.42 1488 1480 _____________P -1 33.17 -53.42 HU 75 10 72
1868 NA NA 18:00:00 TS 33.30 -52.80 1480 1470 _____________O -1 33.30 -52.80 HU 75 11 78
1868 NA NA 21:00:00 TS 33.40 -52.19 1471 1461 _____________P -1 33.40 -52.19 HU 75 9 78
1868 NA NA 1868-09-17 00:00:00 TS 33.50 -51.70 1463 1452 _____________O -1 33.50 -51.70 HU 75 6 68
1868 NA NA 03:00:00 TS 33.64 -51.48 1453 1432 _____________P -1 33.64 -51.48 HU 75 4 40
1868 NA NA 06:00:00 TS 33.80 -51.40 1432 1421 _____________O -1 33.80 -51.40 HU 75 3 29
1868 NA NA 09:00:00 TS 33.91 -51.31 1422 1401 _____________P -1 33.91 -51.31 HU 75 3 29
1868 NA NA 12:00:00 TS 34.10 -51.20 1401 1368 _____________O -1 34.10 -51.20 HU 75 6 23
1868 NA NA 15:00:00 TS 34.45 -51.03 1370 1317 _____________P -1 34.45 -51.03 HU 72 9 23
1868 NA NA 18:00:00 TS 34.90 -50.80 1317 1275 _____________O -1 34.90 -50.80 HU 70 10 24
1868 NA NA 21:00:00 TS 35.32 -50.56 1275 1216 _____________P -1 35.32 -50.56 HU 70 11 26
1868 NA NA 1868-09-18 00:00:00 TS 35.90 -50.20 1216 1138 _____________O -1 35.90 -50.20 HU 70 16 27
1868 NA NA 03:00:00 TS 36.71 -49.69 1138 1045 _____________P -1 36.71 -49.69 HU 70 21 27
1868 NA NA 06:00:00 TS 37.80 -49.00 1037 927 _____________O -1 37.80 -49.00 HU 70 28 26
1868 NA NA 09:00:00 TS 39.19 -48.13 920 822 _____________P -1 39.19 -48.13 HU 70 33 27
1868 NA NA 12:00:00 TS 40.70 -47.10 817 759 _____________O -1 40.70 -47.10 HU 70 33 29
1868 NA NA 15:00:00 TS 42.09 -45.99 758 742 _____________P -1 42.09 -45.99 HU 67 32 32
1868 NA NA 18:00:00 TS 43.40 -44.80 743 743 _____________O -1 43.40 -44.80 HU 65 31 36
1868 NA NA 21:00:00 TS 44.60 -43.50 769 769 _____________P -1 44.60 -43.50 HU 65 29 38
1868 NA NA 1868-09-19 00:00:00 TS 45.70 -42.30 808 808 _____________O -1 45.70 -42.30 HU 65 26 33
1868 NA NA 03:00:00 TS 46.75 -41.49 838 838 _____________P -1 46.75 -41.49 HU 60 24 28
1868 NA NA 06:00:00 TS 47.80 -40.70 887 887 _____________O -1 47.80 -40.70 TS 55 25 32
1868 NA NA 09:00:00 TS 48.89 -39.54 977 977 _____________P -1 48.89 -39.54 TS 50 28 38
1868 NA NA 12:00:00 ET 50.00 -38.10 1085 _____________O -1 50.00 -38.10 EX 45 29 40